<?xml version="1.0" encoding="UTF-8" standalone="no" ?>
<gpx xmlns="http://www.topografix.com/GPX/1/1" xmlns:xsi="http://www.w3.org/2001/XMLSchema-instance" xsi:schemaLocation="http://www.topografix.com/GPX/1/1 http://www.topografix.com/GPX/1/1/gpx.xsd" version="1.1" creator="VisuGPX - https://www.visugpx.com">
  <metadata>
    <name>13603314-tossal colomer</name>
  </metadata>
  <trk>
    <name><![CDATA[13603314-tossal colomer]]></name>
    <trkseg>
      <trkpt lat="42.5604" lon="1.99689">
        <ele>2038</ele>
        <time>2021-08-23T20:54:08Z</time>
      </trkpt>
      <trkpt lat="42.56032" lon="1.9968">
        <ele>2038</ele>
        <time>2021-08-23T20:54:22Z</time>
      </trkpt>
      <trkpt lat="42.56028" lon="1.99659">
        <ele>2041</ele>
        <time>2021-08-23T20:54:43Z</time>
      </trkpt>
      <trkpt lat="42.5602" lon="1.99661">
        <ele>2040</ele>
        <time>2021-08-23T20:54:54Z</time>
      </trkpt>
      <trkpt lat="42.55999" lon="1.99633">
        <ele>2038</ele>
        <time>2021-08-23T20:55:33Z</time>
      </trkpt>
      <trkpt lat="42.55992" lon="1.99633">
        <ele>2037</ele>
        <time>2021-08-23T20:55:43Z</time>
      </trkpt>
      <trkpt lat="42.56007" lon="1.99548">
        <ele>2044</ele>
        <time>2021-08-23T20:57:09Z</time>
      </trkpt>
      <trkpt lat="42.56029" lon="1.9947">
        <ele>2062</ele>
        <time>2021-08-23T20:58:31Z</time>
      </trkpt>
      <trkpt lat="42.5602" lon="1.99406">
        <ele>2069</ele>
        <time>2021-08-23T20:59:35Z</time>
      </trkpt>
      <trkpt lat="42.56" lon="1.99321">
        <ele>2073</ele>
        <time>2021-08-23T21:01:02Z</time>
      </trkpt>
      <trkpt lat="42.55991" lon="1.99257">
        <ele>2071</ele>
        <time>2021-08-23T21:02:06Z</time>
      </trkpt>
      <trkpt lat="42.55992" lon="1.99233">
        <ele>2072</ele>
        <time>2021-08-23T21:02:30Z</time>
      </trkpt>
      <trkpt lat="42.56004" lon="1.99209">
        <ele>2077</ele>
        <time>2021-08-23T21:02:59Z</time>
      </trkpt>
      <trkpt lat="42.56008" lon="1.99157">
        <ele>2080</ele>
        <time>2021-08-23T21:03:50Z</time>
      </trkpt>
      <trkpt lat="42.56026" lon="1.99081">
        <ele>2090</ele>
        <time>2021-08-23T21:05:08Z</time>
      </trkpt>
      <trkpt lat="42.56039" lon="1.9906">
        <ele>2095</ele>
        <time>2021-08-23T21:05:35Z</time>
      </trkpt>
      <trkpt lat="42.56061" lon="1.99038">
        <ele>2096</ele>
        <time>2021-08-23T21:06:12Z</time>
      </trkpt>
      <trkpt lat="42.56075" lon="1.99018">
        <ele>2095</ele>
        <time>2021-08-23T21:06:39Z</time>
      </trkpt>
      <trkpt lat="42.56078" lon="1.98998">
        <ele>2094</ele>
        <time>2021-08-23T21:06:59Z</time>
      </trkpt>
      <trkpt lat="42.56086" lon="1.98978">
        <ele>2097</ele>
        <time>2021-08-23T21:07:21Z</time>
      </trkpt>
      <trkpt lat="42.56096" lon="1.98961">
        <ele>2101</ele>
        <time>2021-08-23T21:07:43Z</time>
      </trkpt>
      <trkpt lat="42.56117" lon="1.98943">
        <ele>2103</ele>
        <time>2021-08-23T21:08:16Z</time>
      </trkpt>
      <trkpt lat="42.56123" lon="1.98925">
        <ele>2104</ele>
        <time>2021-08-23T21:08:35Z</time>
      </trkpt>
      <trkpt lat="42.56132" lon="1.98912">
        <ele>2105</ele>
        <time>2021-08-23T21:08:53Z</time>
      </trkpt>
      <trkpt lat="42.56147" lon="1.98905">
        <ele>2104</ele>
        <time>2021-08-23T21:09:14Z</time>
      </trkpt>
      <trkpt lat="42.56156" lon="1.98893">
        <ele>2105</ele>
        <time>2021-08-23T21:09:31Z</time>
      </trkpt>
      <trkpt lat="42.56158" lon="1.98873">
        <ele>2107</ele>
        <time>2021-08-23T21:09:51Z</time>
      </trkpt>
      <trkpt lat="42.56168" lon="1.98853">
        <ele>2108</ele>
        <time>2021-08-23T21:10:15Z</time>
      </trkpt>
      <trkpt lat="42.56198" lon="1.9882">
        <ele>2112</ele>
        <time>2021-08-23T21:11:06Z</time>
      </trkpt>
      <trkpt lat="42.56236" lon="1.98788">
        <ele>2116</ele>
        <time>2021-08-23T21:12:06Z</time>
      </trkpt>
      <trkpt lat="42.56249" lon="1.98782">
        <ele>2116</ele>
        <time>2021-08-23T21:12:24Z</time>
      </trkpt>
      <trkpt lat="42.56262" lon="1.98766">
        <ele>2118</ele>
        <time>2021-08-23T21:12:47Z</time>
      </trkpt>
      <trkpt lat="42.56263" lon="1.9875">
        <ele>2120</ele>
        <time>2021-08-23T21:13:03Z</time>
      </trkpt>
      <trkpt lat="42.56275" lon="1.98728">
        <ele>2124</ele>
        <time>2021-08-23T21:13:30Z</time>
      </trkpt>
      <trkpt lat="42.5631" lon="1.98711">
        <ele>2125</ele>
        <time>2021-08-23T21:14:20Z</time>
      </trkpt>
      <trkpt lat="42.56329" lon="1.98671">
        <ele>2130</ele>
        <time>2021-08-23T21:15:07Z</time>
      </trkpt>
      <trkpt lat="42.56338" lon="1.98665">
        <ele>2130</ele>
        <time>2021-08-23T21:15:20Z</time>
      </trkpt>
      <trkpt lat="42.56338" lon="1.98637">
        <ele>2135</ele>
        <time>2021-08-23T21:15:47Z</time>
      </trkpt>
      <trkpt lat="42.56377" lon="1.98599">
        <ele>2139</ele>
        <time>2021-08-23T21:16:51Z</time>
      </trkpt>
      <trkpt lat="42.56424" lon="1.98568">
        <ele>2141</ele>
        <time>2021-08-23T21:18:01Z</time>
      </trkpt>
      <trkpt lat="42.56431" lon="1.98555">
        <ele>2142</ele>
        <time>2021-08-23T21:18:17Z</time>
      </trkpt>
      <trkpt lat="42.56437" lon="1.98507">
        <ele>2147</ele>
        <time>2021-08-23T21:19:05Z</time>
      </trkpt>
      <trkpt lat="42.56437" lon="1.98497">
        <ele>2148</ele>
        <time>2021-08-23T21:19:15Z</time>
      </trkpt>
      <trkpt lat="42.56429" lon="1.98477">
        <ele>2149</ele>
        <time>2021-08-23T21:19:37Z</time>
      </trkpt>
      <trkpt lat="42.56422" lon="1.98439">
        <ele>2151</ele>
        <time>2021-08-23T21:20:16Z</time>
      </trkpt>
      <trkpt lat="42.56424" lon="1.98431">
        <ele>2152</ele>
        <time>2021-08-23T21:20:24Z</time>
      </trkpt>
      <trkpt lat="42.56421" lon="1.98395">
        <ele>2153</ele>
        <time>2021-08-23T21:21:00Z</time>
      </trkpt>
      <trkpt lat="42.56426" lon="1.98351">
        <ele>2154</ele>
        <time>2021-08-23T21:21:43Z</time>
      </trkpt>
      <trkpt lat="42.56444" lon="1.98322">
        <ele>2156</ele>
        <time>2021-08-23T21:22:21Z</time>
      </trkpt>
      <trkpt lat="42.5645" lon="1.98306">
        <ele>2159</ele>
        <time>2021-08-23T21:22:38Z</time>
      </trkpt>
      <trkpt lat="42.56468" lon="1.98287">
        <ele>2161</ele>
        <time>2021-08-23T21:23:09Z</time>
      </trkpt>
      <trkpt lat="42.56501" lon="1.98245">
        <ele>2165</ele>
        <time>2021-08-23T21:24:09Z</time>
      </trkpt>
      <trkpt lat="42.56519" lon="1.98236">
        <ele>2164</ele>
        <time>2021-08-23T21:24:35Z</time>
      </trkpt>
      <trkpt lat="42.56542" lon="1.982">
        <ele>2167</ele>
        <time>2021-08-23T21:25:21Z</time>
      </trkpt>
      <trkpt lat="42.56542" lon="1.98171">
        <ele>2172</ele>
        <time>2021-08-23T21:25:50Z</time>
      </trkpt>
      <trkpt lat="42.56526" lon="1.98145">
        <ele>2174</ele>
        <time>2021-08-23T21:26:23Z</time>
      </trkpt>
      <trkpt lat="42.56526" lon="1.98117">
        <ele>2174</ele>
        <time>2021-08-23T21:26:51Z</time>
      </trkpt>
      <trkpt lat="42.56518" lon="1.98106">
        <ele>2174</ele>
        <time>2021-08-23T21:27:06Z</time>
      </trkpt>
      <trkpt lat="42.56511" lon="1.98081">
        <ele>2174</ele>
        <time>2021-08-23T21:27:32Z</time>
      </trkpt>
      <trkpt lat="42.565" lon="1.98063">
        <ele>2174</ele>
        <time>2021-08-23T21:27:55Z</time>
      </trkpt>
      <trkpt lat="42.56498" lon="1.9805">
        <ele>2174</ele>
        <time>2021-08-23T21:28:08Z</time>
      </trkpt>
      <trkpt lat="42.565" lon="1.9803">
        <ele>2173</ele>
        <time>2021-08-23T21:28:28Z</time>
      </trkpt>
      <trkpt lat="42.5648" lon="1.97951">
        <ele>2173</ele>
        <time>2021-08-23T21:29:50Z</time>
      </trkpt>
      <trkpt lat="42.5647" lon="1.97942">
        <ele>2173</ele>
        <time>2021-08-23T21:30:06Z</time>
      </trkpt>
      <trkpt lat="42.5646" lon="1.97925">
        <ele>2173</ele>
        <time>2021-08-23T21:30:28Z</time>
      </trkpt>
      <trkpt lat="42.56462" lon="1.9787">
        <ele>2170</ele>
        <time>2021-08-23T21:31:22Z</time>
      </trkpt>
      <trkpt lat="42.56459" lon="1.97853">
        <ele>2170</ele>
        <time>2021-08-23T21:31:39Z</time>
      </trkpt>
      <trkpt lat="42.5646" lon="1.97817">
        <ele>2168</ele>
        <time>2021-08-23T21:32:14Z</time>
      </trkpt>
      <trkpt lat="42.56451" lon="1.97789">
        <ele>2168</ele>
        <time>2021-08-23T21:32:44Z</time>
      </trkpt>
      <trkpt lat="42.56452" lon="1.97782">
        <ele>2168</ele>
        <time>2021-08-23T21:32:51Z</time>
      </trkpt>
      <trkpt lat="42.56458" lon="1.97772">
        <ele>2167</ele>
        <time>2021-08-23T21:33:04Z</time>
      </trkpt>
      <trkpt lat="42.56445" lon="1.97723">
        <ele>2167</ele>
        <time>2021-08-23T21:33:55Z</time>
      </trkpt>
      <trkpt lat="42.56447" lon="1.97708">
        <ele>2167</ele>
        <time>2021-08-23T21:34:10Z</time>
      </trkpt>
      <trkpt lat="42.56453" lon="1.97692">
        <ele>2168</ele>
        <time>2021-08-23T21:34:28Z</time>
      </trkpt>
      <trkpt lat="42.5646" lon="1.97647">
        <ele>2169</ele>
        <time>2021-08-23T21:35:13Z</time>
      </trkpt>
      <trkpt lat="42.56469" lon="1.97634">
        <ele>2170</ele>
        <time>2021-08-23T21:35:31Z</time>
      </trkpt>
      <trkpt lat="42.56476" lon="1.97631">
        <ele>2171</ele>
        <time>2021-08-23T21:35:40Z</time>
      </trkpt>
      <trkpt lat="42.56477" lon="1.9762">
        <ele>2171</ele>
        <time>2021-08-23T21:35:51Z</time>
      </trkpt>
      <trkpt lat="42.56482" lon="1.97608">
        <ele>2171</ele>
        <time>2021-08-23T21:36:05Z</time>
      </trkpt>
      <trkpt lat="42.56483" lon="1.97587">
        <ele>2171</ele>
        <time>2021-08-23T21:36:25Z</time>
      </trkpt>
      <trkpt lat="42.56487" lon="1.97574">
        <ele>2171</ele>
        <time>2021-08-23T21:36:39Z</time>
      </trkpt>
      <trkpt lat="42.5651" lon="1.97555">
        <ele>2173</ele>
        <time>2021-08-23T21:37:15Z</time>
      </trkpt>
      <trkpt lat="42.56522" lon="1.97541">
        <ele>2173</ele>
        <time>2021-08-23T21:37:36Z</time>
      </trkpt>
      <trkpt lat="42.56528" lon="1.97523">
        <ele>2173</ele>
        <time>2021-08-23T21:37:56Z</time>
      </trkpt>
      <trkpt lat="42.56529" lon="1.97486">
        <ele>2174</ele>
        <time>2021-08-23T21:38:32Z</time>
      </trkpt>
      <trkpt lat="42.56512" lon="1.97465">
        <ele>2177</ele>
        <time>2021-08-23T21:39:03Z</time>
      </trkpt>
      <trkpt lat="42.56506" lon="1.97453">
        <ele>2179</ele>
        <time>2021-08-23T21:39:17Z</time>
      </trkpt>
      <trkpt lat="42.56504" lon="1.97441">
        <ele>2181</ele>
        <time>2021-08-23T21:39:29Z</time>
      </trkpt>
      <trkpt lat="42.56495" lon="1.9743">
        <ele>2183</ele>
        <time>2021-08-23T21:39:45Z</time>
      </trkpt>
      <trkpt lat="42.56508" lon="1.97428">
        <ele>2183</ele>
        <time>2021-08-23T21:40:03Z</time>
      </trkpt>
      <trkpt lat="42.56539" lon="1.97429">
        <ele>2182</ele>
        <time>2021-08-23T21:40:44Z</time>
      </trkpt>
      <trkpt lat="42.56567" lon="1.97417">
        <ele>2183</ele>
        <time>2021-08-23T21:41:23Z</time>
      </trkpt>
      <trkpt lat="42.56595" lon="1.97392">
        <ele>2186</ele>
        <time>2021-08-23T21:42:08Z</time>
      </trkpt>
      <trkpt lat="42.56683" lon="1.97352">
        <ele>2190</ele>
        <time>2021-08-23T21:44:12Z</time>
      </trkpt>
      <trkpt lat="42.56708" lon="1.97347">
        <ele>2190</ele>
        <time>2021-08-23T21:44:46Z</time>
      </trkpt>
      <trkpt lat="42.56723" lon="1.9733">
        <ele>2191</ele>
        <time>2021-08-23T21:45:12Z</time>
      </trkpt>
      <trkpt lat="42.56734" lon="1.97309">
        <ele>2194</ele>
        <time>2021-08-23T21:45:37Z</time>
      </trkpt>
      <trkpt lat="42.56834" lon="1.97212">
        <ele>2208</ele>
        <time>2021-08-23T21:48:21Z</time>
      </trkpt>
      <trkpt lat="42.56904" lon="1.97156">
        <ele>2221</ele>
        <time>2021-08-23T21:50:09Z</time>
      </trkpt>
      <trkpt lat="42.56957" lon="1.97118">
        <ele>2228</ele>
        <time>2021-08-23T21:51:29Z</time>
      </trkpt>
      <trkpt lat="42.57005" lon="1.97097">
        <ele>2234</ele>
        <time>2021-08-23T21:52:37Z</time>
      </trkpt>
      <trkpt lat="42.57084" lon="1.97075">
        <ele>2237</ele>
        <time>2021-08-23T21:54:24Z</time>
      </trkpt>
      <trkpt lat="42.57117" lon="1.9706">
        <ele>2238</ele>
        <time>2021-08-23T21:55:11Z</time>
      </trkpt>
      <trkpt lat="42.57154" lon="1.97031">
        <ele>2240</ele>
        <time>2021-08-23T21:56:08Z</time>
      </trkpt>
      <trkpt lat="42.57173" lon="1.97012">
        <ele>2241</ele>
        <time>2021-08-23T21:56:39Z</time>
      </trkpt>
      <trkpt lat="42.57188" lon="1.96991">
        <ele>2239</ele>
        <time>2021-08-23T21:57:08Z</time>
      </trkpt>
      <trkpt lat="42.57252" lon="1.96922">
        <ele>2230</ele>
        <time>2021-08-23T21:58:57Z</time>
      </trkpt>
      <trkpt lat="42.57265" lon="1.96903">
        <ele>2229</ele>
        <time>2021-08-23T21:59:23Z</time>
      </trkpt>
      <trkpt lat="42.57293" lon="1.96891">
        <ele>2230</ele>
        <time>2021-08-23T22:00:02Z</time>
      </trkpt>
      <trkpt lat="42.57299" lon="1.96883">
        <ele>2230</ele>
        <time>2021-08-23T22:00:13Z</time>
      </trkpt>
      <trkpt lat="42.57301" lon="1.96873">
        <ele>2229</ele>
        <time>2021-08-23T22:00:23Z</time>
      </trkpt>
      <trkpt lat="42.57306" lon="1.96865">
        <ele>2229</ele>
        <time>2021-08-23T22:00:34Z</time>
      </trkpt>
      <trkpt lat="42.57309" lon="1.96849">
        <ele>2228</ele>
        <time>2021-08-23T22:00:50Z</time>
      </trkpt>
      <trkpt lat="42.57311" lon="1.96827">
        <ele>2228</ele>
        <time>2021-08-23T22:01:12Z</time>
      </trkpt>
      <trkpt lat="42.57308" lon="1.96782">
        <ele>2229</ele>
        <time>2021-08-23T22:01:56Z</time>
      </trkpt>
      <trkpt lat="42.57314" lon="1.96756">
        <ele>2231</ele>
        <time>2021-08-23T22:02:23Z</time>
      </trkpt>
      <trkpt lat="42.57317" lon="1.96711">
        <ele>2237</ele>
        <time>2021-08-23T22:03:07Z</time>
      </trkpt>
      <trkpt lat="42.57309" lon="1.9668">
        <ele>2239</ele>
        <time>2021-08-23T22:03:39Z</time>
      </trkpt>
      <trkpt lat="42.57287" lon="1.96642">
        <ele>2243</ele>
        <time>2021-08-23T22:04:27Z</time>
      </trkpt>
      <trkpt lat="42.57265" lon="1.9663">
        <ele>2242</ele>
        <time>2021-08-23T22:04:59Z</time>
      </trkpt>
      <trkpt lat="42.57264" lon="1.96621">
        <ele>2244</ele>
        <time>2021-08-23T22:05:07Z</time>
      </trkpt>
      <trkpt lat="42.57272" lon="1.96588">
        <ele>2250</ele>
        <time>2021-08-23T22:05:42Z</time>
      </trkpt>
      <trkpt lat="42.57274" lon="1.96565">
        <ele>2254</ele>
        <time>2021-08-23T22:06:04Z</time>
      </trkpt>
      <trkpt lat="42.57269" lon="1.96546">
        <ele>2257</ele>
        <time>2021-08-23T22:06:24Z</time>
      </trkpt>
      <trkpt lat="42.57254" lon="1.96525">
        <ele>2257</ele>
        <time>2021-08-23T22:06:53Z</time>
      </trkpt>
      <trkpt lat="42.57255" lon="1.9648">
        <ele>2265</ele>
        <time>2021-08-23T22:07:37Z</time>
      </trkpt>
      <trkpt lat="42.57235" lon="1.96388">
        <ele>2274</ele>
        <time>2021-08-23T22:09:11Z</time>
      </trkpt>
      <trkpt lat="42.57232" lon="1.96349">
        <ele>2279</ele>
        <time>2021-08-23T22:09:50Z</time>
      </trkpt>
      <trkpt lat="42.57234" lon="1.96336">
        <ele>2282</ele>
        <time>2021-08-23T22:10:03Z</time>
      </trkpt>
      <trkpt lat="42.57233" lon="1.96322">
        <ele>2283</ele>
        <time>2021-08-23T22:10:17Z</time>
      </trkpt>
      <trkpt lat="42.57224" lon="1.96303">
        <ele>2283</ele>
        <time>2021-08-23T22:10:39Z</time>
      </trkpt>
      <trkpt lat="42.57217" lon="1.96247">
        <ele>2287</ele>
        <time>2021-08-23T22:11:35Z</time>
      </trkpt>
      <trkpt lat="42.5721" lon="1.96227">
        <ele>2288</ele>
        <time>2021-08-23T22:11:57Z</time>
      </trkpt>
      <trkpt lat="42.57201" lon="1.96187">
        <ele>2291</ele>
        <time>2021-08-23T22:12:38Z</time>
      </trkpt>
      <trkpt lat="42.57205" lon="1.96174">
        <ele>2294</ele>
        <time>2021-08-23T22:12:52Z</time>
      </trkpt>
      <trkpt lat="42.57209" lon="1.96136">
        <ele>2299</ele>
        <time>2021-08-23T22:13:29Z</time>
      </trkpt>
      <trkpt lat="42.57216" lon="1.96113">
        <ele>2304</ele>
        <time>2021-08-23T22:13:54Z</time>
      </trkpt>
      <trkpt lat="42.57215" lon="1.96043">
        <ele>2312</ele>
        <time>2021-08-23T22:15:03Z</time>
      </trkpt>
      <trkpt lat="42.57219" lon="1.96025">
        <ele>2315</ele>
        <time>2021-08-23T22:15:21Z</time>
      </trkpt>
      <trkpt lat="42.57232" lon="1.96001">
        <ele>2320</ele>
        <time>2021-08-23T22:15:50Z</time>
      </trkpt>
      <trkpt lat="42.57241" lon="1.95968">
        <ele>2329</ele>
        <time>2021-08-23T22:16:25Z</time>
      </trkpt>
      <trkpt lat="42.57251" lon="1.9586">
        <ele>2347</ele>
        <time>2021-08-23T22:18:12Z</time>
      </trkpt>
      <trkpt lat="42.57246" lon="1.95795">
        <ele>2352</ele>
        <time>2021-08-23T22:19:16Z</time>
      </trkpt>
      <trkpt lat="42.57228" lon="1.95775">
        <ele>2353</ele>
        <time>2021-08-23T22:19:47Z</time>
      </trkpt>
      <trkpt lat="42.57208" lon="1.95759">
        <ele>2354</ele>
        <time>2021-08-23T22:20:18Z</time>
      </trkpt>
      <trkpt lat="42.57199" lon="1.95741">
        <ele>2354</ele>
        <time>2021-08-23T22:20:40Z</time>
      </trkpt>
      <trkpt lat="42.57179" lon="1.95723">
        <ele>2355</ele>
        <time>2021-08-23T22:21:12Z</time>
      </trkpt>
      <trkpt lat="42.57162" lon="1.95695">
        <ele>2357</ele>
        <time>2021-08-23T22:21:47Z</time>
      </trkpt>
      <trkpt lat="42.57147" lon="1.95651">
        <ele>2361</ele>
        <time>2021-08-23T22:22:35Z</time>
      </trkpt>
      <trkpt lat="42.57141" lon="1.95601">
        <ele>2364</ele>
        <time>2021-08-23T22:23:25Z</time>
      </trkpt>
      <trkpt lat="42.57146" lon="1.95585">
        <ele>2363</ele>
        <time>2021-08-23T22:23:42Z</time>
      </trkpt>
      <trkpt lat="42.5715" lon="1.95551">
        <ele>2364</ele>
        <time>2021-08-23T22:24:16Z</time>
      </trkpt>
      <trkpt lat="42.57153" lon="1.95546">
        <ele>2363</ele>
        <time>2021-08-23T22:24:22Z</time>
      </trkpt>
      <trkpt lat="42.57155" lon="1.95522">
        <ele>2363</ele>
        <time>2021-08-23T22:24:46Z</time>
      </trkpt>
      <trkpt lat="42.57158" lon="1.95515">
        <ele>2363</ele>
        <time>2021-08-23T22:24:54Z</time>
      </trkpt>
      <trkpt lat="42.57156" lon="1.95483">
        <ele>2365</ele>
        <time>2021-08-23T22:25:25Z</time>
      </trkpt>
      <trkpt lat="42.57158" lon="1.95444">
        <ele>2367</ele>
        <time>2021-08-23T22:26:04Z</time>
      </trkpt>
      <trkpt lat="42.57164" lon="1.95406">
        <ele>2368</ele>
        <time>2021-08-23T22:26:42Z</time>
      </trkpt>
      <trkpt lat="42.5716" lon="1.95358">
        <ele>2365</ele>
        <time>2021-08-23T22:27:29Z</time>
      </trkpt>
      <trkpt lat="42.57158" lon="1.95256">
        <ele>2363</ele>
        <time>2021-08-23T22:29:10Z</time>
      </trkpt>
      <trkpt lat="42.57153" lon="1.95216">
        <ele>2365</ele>
        <time>2021-08-23T22:29:49Z</time>
      </trkpt>
      <trkpt lat="42.57145" lon="1.9518">
        <ele>2367</ele>
        <time>2021-08-23T22:30:26Z</time>
      </trkpt>
      <trkpt lat="42.57153" lon="1.95155">
        <ele>2367</ele>
        <time>2021-08-23T22:30:53Z</time>
      </trkpt>
      <trkpt lat="42.57157" lon="1.95108">
        <ele>2370</ele>
        <time>2021-08-23T22:31:40Z</time>
      </trkpt>
      <trkpt lat="42.57156" lon="1.95087">
        <ele>2373</ele>
        <time>2021-08-23T22:32:00Z</time>
      </trkpt>
      <trkpt lat="42.5716" lon="1.95079">
        <ele>2373</ele>
        <time>2021-08-23T22:32:10Z</time>
      </trkpt>
      <trkpt lat="42.57167" lon="1.95045">
        <ele>2379</ele>
        <time>2021-08-23T22:32:44Z</time>
      </trkpt>
      <trkpt lat="42.57181" lon="1.95002">
        <ele>2385</ele>
        <time>2021-08-23T22:33:31Z</time>
      </trkpt>
      <trkpt lat="42.57175" lon="1.94968">
        <ele>2390</ele>
        <time>2021-08-23T22:34:05Z</time>
      </trkpt>
      <trkpt lat="42.57167" lon="1.94953">
        <ele>2393</ele>
        <time>2021-08-23T22:34:23Z</time>
      </trkpt>
      <trkpt lat="42.57165" lon="1.94924">
        <ele>2397</ele>
        <time>2021-08-23T22:34:52Z</time>
      </trkpt>
      <trkpt lat="42.57168" lon="1.94914">
        <ele>2397</ele>
        <time>2021-08-23T22:35:02Z</time>
      </trkpt>
      <trkpt lat="42.57159" lon="1.94899">
        <ele>2401</ele>
        <time>2021-08-23T22:35:22Z</time>
      </trkpt>
      <trkpt lat="42.57146" lon="1.94891">
        <ele>2405</ele>
        <time>2021-08-23T22:35:41Z</time>
      </trkpt>
      <trkpt lat="42.57128" lon="1.94872">
        <ele>2412</ele>
        <time>2021-08-23T22:36:11Z</time>
      </trkpt>
      <trkpt lat="42.57125" lon="1.94859">
        <ele>2414</ele>
        <time>2021-08-23T22:36:24Z</time>
      </trkpt>
      <trkpt lat="42.57124" lon="1.94833">
        <ele>2417</ele>
        <time>2021-08-23T22:36:50Z</time>
      </trkpt>
      <trkpt lat="42.57127" lon="1.9478">
        <ele>2420</ele>
        <time>2021-08-23T22:37:42Z</time>
      </trkpt>
      <trkpt lat="42.57122" lon="1.94757">
        <ele>2423</ele>
        <time>2021-08-23T22:38:06Z</time>
      </trkpt>
      <trkpt lat="42.57107" lon="1.94735">
        <ele>2426</ele>
        <time>2021-08-23T22:38:35Z</time>
      </trkpt>
      <trkpt lat="42.57097" lon="1.94713">
        <ele>2428</ele>
        <time>2021-08-23T22:39:01Z</time>
      </trkpt>
      <trkpt lat="42.57094" lon="1.94697">
        <ele>2429</ele>
        <time>2021-08-23T22:39:17Z</time>
      </trkpt>
      <trkpt lat="42.57098" lon="1.94644">
        <ele>2430</ele>
        <time>2021-08-23T22:40:09Z</time>
      </trkpt>
      <trkpt lat="42.57091" lon="1.94614">
        <ele>2434</ele>
        <time>2021-08-23T22:40:40Z</time>
      </trkpt>
      <trkpt lat="42.57089" lon="1.94577">
        <ele>2437</ele>
        <time>2021-08-23T22:41:17Z</time>
      </trkpt>
      <trkpt lat="42.57083" lon="1.94558">
        <ele>2440</ele>
        <time>2021-08-23T22:41:37Z</time>
      </trkpt>
      <trkpt lat="42.57056" lon="1.94532">
        <ele>2457</ele>
        <time>2021-08-23T22:42:21Z</time>
      </trkpt>
      <trkpt lat="42.5705" lon="1.94521">
        <ele>2461</ele>
        <time>2021-08-23T22:42:35Z</time>
      </trkpt>
      <trkpt lat="42.57046" lon="1.94493">
        <ele>2466</ele>
        <time>2021-08-23T22:43:03Z</time>
      </trkpt>
      <trkpt lat="42.57039" lon="1.94473">
        <ele>2472</ele>
        <time>2021-08-23T22:43:24Z</time>
      </trkpt>
      <trkpt lat="42.57023" lon="1.9445">
        <ele>2482</ele>
        <time>2021-08-23T22:43:55Z</time>
      </trkpt>
      <trkpt lat="42.5701" lon="1.94409">
        <ele>2493</ele>
        <time>2021-08-23T22:44:39Z</time>
      </trkpt>
      <trkpt lat="42.57003" lon="1.94357">
        <ele>2504</ele>
        <time>2021-08-23T22:45:31Z</time>
      </trkpt>
      <trkpt lat="42.57012" lon="1.94309">
        <ele>2515</ele>
        <time>2021-08-23T22:46:20Z</time>
      </trkpt>
      <trkpt lat="42.57019" lon="1.94285">
        <ele>2524</ele>
        <time>2021-08-23T22:46:45Z</time>
      </trkpt>
      <trkpt lat="42.57031" lon="1.94258">
        <ele>2532</ele>
        <time>2021-08-23T22:47:16Z</time>
      </trkpt>
      <trkpt lat="42.57035" lon="1.94237">
        <ele>2540</ele>
        <time>2021-08-23T22:47:38Z</time>
      </trkpt>
      <trkpt lat="42.57035" lon="1.942">
        <ele>2558</ele>
        <time>2021-08-23T22:48:14Z</time>
      </trkpt>
      <trkpt lat="42.57039" lon="1.94189">
        <ele>2562</ele>
        <time>2021-08-23T22:48:26Z</time>
      </trkpt>
      <trkpt lat="42.57042" lon="1.94166">
        <ele>2573</ele>
        <time>2021-08-23T22:48:49Z</time>
      </trkpt>
      <trkpt lat="42.57052" lon="1.94143">
        <ele>2577</ele>
        <time>2021-08-23T22:49:15Z</time>
      </trkpt>
      <trkpt lat="42.57051" lon="1.94137">
        <ele>2579</ele>
        <time>2021-08-23T22:49:21Z</time>
      </trkpt>
      <trkpt lat="42.57046" lon="1.9413">
        <ele>2583</ele>
        <time>2021-08-23T22:49:31Z</time>
      </trkpt>
      <trkpt lat="42.57051" lon="1.94096">
        <ele>2593</ele>
        <time>2021-08-23T22:50:05Z</time>
      </trkpt>
      <trkpt lat="42.57048" lon="1.94089">
        <ele>2596</ele>
        <time>2021-08-23T22:50:13Z</time>
      </trkpt>
      <trkpt lat="42.57052" lon="1.94079">
        <ele>2598</ele>
        <time>2021-08-23T22:50:24Z</time>
      </trkpt>
      <trkpt lat="42.57049" lon="1.94065">
        <ele>2602</ele>
        <time>2021-08-23T22:50:38Z</time>
      </trkpt>
      <trkpt lat="42.57051" lon="1.94054">
        <ele>2605</ele>
        <time>2021-08-23T22:50:50Z</time>
      </trkpt>
      <trkpt lat="42.57047" lon="1.94033">
        <ele>2611</ele>
        <time>2021-08-23T22:51:11Z</time>
      </trkpt>
      <trkpt lat="42.57046" lon="1.94007">
        <ele>2618</ele>
        <time>2021-08-23T22:51:36Z</time>
      </trkpt>
      <trkpt lat="42.57042" lon="1.94001">
        <ele>2619</ele>
        <time>2021-08-23T22:51:44Z</time>
      </trkpt>
      <trkpt lat="42.5703" lon="1.93995">
        <ele>2620</ele>
        <time>2021-08-23T22:52:01Z</time>
      </trkpt>
      <trkpt lat="42.57024" lon="1.93989">
        <ele>2621</ele>
        <time>2021-08-23T22:52:11Z</time>
      </trkpt>
      <trkpt lat="42.57017" lon="1.93993">
        <ele>2620</ele>
        <time>2021-08-23T22:52:22Z</time>
      </trkpt>
      <trkpt lat="42.57006" lon="1.93994">
        <ele>2620</ele>
        <time>2021-08-23T22:52:36Z</time>
      </trkpt>
      <trkpt lat="42.57004" lon="1.93985">
        <ele>2621</ele>
        <time>2021-08-23T22:52:45Z</time>
      </trkpt>
      <trkpt lat="42.56998" lon="1.93987">
        <ele>2621</ele>
        <time>2021-08-23T22:52:54Z</time>
      </trkpt>
      <trkpt lat="42.56998" lon="1.93969">
        <ele>2624</ele>
        <time>2021-08-23T22:53:11Z</time>
      </trkpt>
      <trkpt lat="42.56993" lon="1.93966">
        <ele>2625</ele>
        <time>2021-08-23T22:53:19Z</time>
      </trkpt>
      <trkpt lat="42.56976" lon="1.93999">
        <ele>2622</ele>
        <time>2021-08-23T22:53:58Z</time>
      </trkpt>
      <trkpt lat="42.56965" lon="1.94042">
        <ele>2617</ele>
        <time>2021-08-23T22:54:43Z</time>
      </trkpt>
      <trkpt lat="42.56963" lon="1.94066">
        <ele>2613</ele>
        <time>2021-08-23T22:55:07Z</time>
      </trkpt>
      <trkpt lat="42.56965" lon="1.94091">
        <ele>2608</ele>
        <time>2021-08-23T22:55:31Z</time>
      </trkpt>
      <trkpt lat="42.56971" lon="1.9411">
        <ele>2604</ele>
        <time>2021-08-23T22:55:52Z</time>
      </trkpt>
      <trkpt lat="42.56964" lon="1.94131">
        <ele>2601</ele>
        <time>2021-08-23T22:56:14Z</time>
      </trkpt>
      <trkpt lat="42.56956" lon="1.94142">
        <ele>2601</ele>
        <time>2021-08-23T22:56:30Z</time>
      </trkpt>
      <trkpt lat="42.56943" lon="1.94179">
        <ele>2596</ele>
        <time>2021-08-23T22:57:10Z</time>
      </trkpt>
      <trkpt lat="42.5694" lon="1.94204">
        <ele>2592</ele>
        <time>2021-08-23T22:57:35Z</time>
      </trkpt>
      <trkpt lat="42.5693" lon="1.9423">
        <ele>2590</ele>
        <time>2021-08-23T22:58:04Z</time>
      </trkpt>
      <trkpt lat="42.56883" lon="1.94287">
        <ele>2586</ele>
        <time>2021-08-23T22:59:28Z</time>
      </trkpt>
      <trkpt lat="42.56881" lon="1.94294">
        <ele>2585</ele>
        <time>2021-08-23T22:59:35Z</time>
      </trkpt>
      <trkpt lat="42.5684" lon="1.94362">
        <ele>2595</ele>
        <time>2021-08-23T23:01:01Z</time>
      </trkpt>
      <trkpt lat="42.56822" lon="1.944">
        <ele>2602</ele>
        <time>2021-08-23T23:01:46Z</time>
      </trkpt>
      <trkpt lat="42.56811" lon="1.94408">
        <ele>2603</ele>
        <time>2021-08-23T23:02:03Z</time>
      </trkpt>
      <trkpt lat="42.56795" lon="1.9444">
        <ele>2608</ele>
        <time>2021-08-23T23:02:41Z</time>
      </trkpt>
      <trkpt lat="42.56793" lon="1.94461">
        <ele>2612</ele>
        <time>2021-08-23T23:03:01Z</time>
      </trkpt>
      <trkpt lat="42.56768" lon="1.94507">
        <ele>2625</ele>
        <time>2021-08-23T23:03:58Z</time>
      </trkpt>
      <trkpt lat="42.56753" lon="1.94554">
        <ele>2634</ele>
        <time>2021-08-23T23:04:48Z</time>
      </trkpt>
      <trkpt lat="42.56752" lon="1.9457">
        <ele>2637</ele>
        <time>2021-08-23T23:05:04Z</time>
      </trkpt>
      <trkpt lat="42.56708" lon="1.9464">
        <ele>2643</ele>
        <time>2021-08-23T23:06:34Z</time>
      </trkpt>
      <trkpt lat="42.56669" lon="1.94684">
        <ele>2649</ele>
        <time>2021-08-23T23:07:42Z</time>
      </trkpt>
      <trkpt lat="42.56646" lon="1.94733">
        <ele>2646</ele>
        <time>2021-08-23T23:08:39Z</time>
      </trkpt>
      <trkpt lat="42.56628" lon="1.9478">
        <ele>2644</ele>
        <time>2021-08-23T23:09:31Z</time>
      </trkpt>
      <trkpt lat="42.56628" lon="1.94786">
        <ele>2644</ele>
        <time>2021-08-23T23:09:37Z</time>
      </trkpt>
      <trkpt lat="42.56628" lon="1.9478">
        <ele>2644</ele>
        <time>2021-08-23T23:09:43Z</time>
      </trkpt>
      <trkpt lat="42.56646" lon="1.94733">
        <ele>2646</ele>
        <time>2021-08-23T23:10:35Z</time>
      </trkpt>
      <trkpt lat="42.56669" lon="1.94684">
        <ele>2649</ele>
        <time>2021-08-23T23:11:32Z</time>
      </trkpt>
      <trkpt lat="42.56708" lon="1.9464">
        <ele>2643</ele>
        <time>2021-08-23T23:12:40Z</time>
      </trkpt>
      <trkpt lat="42.56752" lon="1.9457">
        <ele>2637</ele>
        <time>2021-08-23T23:14:10Z</time>
      </trkpt>
      <trkpt lat="42.56753" lon="1.94554">
        <ele>2634</ele>
        <time>2021-08-23T23:14:26Z</time>
      </trkpt>
      <trkpt lat="42.56768" lon="1.94507">
        <ele>2625</ele>
        <time>2021-08-23T23:15:16Z</time>
      </trkpt>
      <trkpt lat="42.56793" lon="1.94461">
        <ele>2612</ele>
        <time>2021-08-23T23:16:12Z</time>
      </trkpt>
      <trkpt lat="42.56795" lon="1.9444">
        <ele>2608</ele>
        <time>2021-08-23T23:16:33Z</time>
      </trkpt>
      <trkpt lat="42.56811" lon="1.94408">
        <ele>2603</ele>
        <time>2021-08-23T23:17:11Z</time>
      </trkpt>
      <trkpt lat="42.56822" lon="1.944">
        <ele>2602</ele>
        <time>2021-08-23T23:17:28Z</time>
      </trkpt>
      <trkpt lat="42.5684" lon="1.94362">
        <ele>2595</ele>
        <time>2021-08-23T23:18:12Z</time>
      </trkpt>
      <trkpt lat="42.56881" lon="1.94294">
        <ele>2585</ele>
        <time>2021-08-23T23:19:39Z</time>
      </trkpt>
      <trkpt lat="42.56883" lon="1.94287">
        <ele>2586</ele>
        <time>2021-08-23T23:19:46Z</time>
      </trkpt>
      <trkpt lat="42.5693" lon="1.9423">
        <ele>2590</ele>
        <time>2021-08-23T23:21:10Z</time>
      </trkpt>
      <trkpt lat="42.5694" lon="1.94204">
        <ele>2592</ele>
        <time>2021-08-23T23:21:39Z</time>
      </trkpt>
      <trkpt lat="42.56943" lon="1.94179">
        <ele>2596</ele>
        <time>2021-08-23T23:22:04Z</time>
      </trkpt>
      <trkpt lat="42.56956" lon="1.94142">
        <ele>2601</ele>
        <time>2021-08-23T23:22:44Z</time>
      </trkpt>
      <trkpt lat="42.56964" lon="1.94131">
        <ele>2601</ele>
        <time>2021-08-23T23:22:59Z</time>
      </trkpt>
      <trkpt lat="42.56971" lon="1.9411">
        <ele>2604</ele>
        <time>2021-08-23T23:23:22Z</time>
      </trkpt>
      <trkpt lat="42.56965" lon="1.94091">
        <ele>2608</ele>
        <time>2021-08-23T23:23:42Z</time>
      </trkpt>
      <trkpt lat="42.56963" lon="1.94066">
        <ele>2613</ele>
        <time>2021-08-23T23:24:07Z</time>
      </trkpt>
      <trkpt lat="42.56965" lon="1.94042">
        <ele>2617</ele>
        <time>2021-08-23T23:24:31Z</time>
      </trkpt>
      <trkpt lat="42.56976" lon="1.93999">
        <ele>2622</ele>
        <time>2021-08-23T23:25:15Z</time>
      </trkpt>
      <trkpt lat="42.56993" lon="1.93966">
        <ele>2625</ele>
        <time>2021-08-23T23:25:55Z</time>
      </trkpt>
      <trkpt lat="42.56998" lon="1.93969">
        <ele>2624</ele>
        <time>2021-08-23T23:26:02Z</time>
      </trkpt>
      <trkpt lat="42.56998" lon="1.93987">
        <ele>2621</ele>
        <time>2021-08-23T23:26:20Z</time>
      </trkpt>
      <trkpt lat="42.57004" lon="1.93985">
        <ele>2621</ele>
        <time>2021-08-23T23:26:28Z</time>
      </trkpt>
      <trkpt lat="42.57006" lon="1.93994">
        <ele>2620</ele>
        <time>2021-08-23T23:26:37Z</time>
      </trkpt>
      <trkpt lat="42.57017" lon="1.93993">
        <ele>2620</ele>
        <time>2021-08-23T23:26:52Z</time>
      </trkpt>
      <trkpt lat="42.57024" lon="1.93989">
        <ele>2621</ele>
        <time>2021-08-23T23:27:02Z</time>
      </trkpt>
      <trkpt lat="42.5703" lon="1.93995">
        <ele>2620</ele>
        <time>2021-08-23T23:27:12Z</time>
      </trkpt>
      <trkpt lat="42.57042" lon="1.94001">
        <ele>2619</ele>
        <time>2021-08-23T23:27:29Z</time>
      </trkpt>
      <trkpt lat="42.57046" lon="1.94007">
        <ele>2618</ele>
        <time>2021-08-23T23:27:37Z</time>
      </trkpt>
      <trkpt lat="42.57048" lon="1.94021">
        <ele>2614</ele>
        <time>2021-08-23T23:27:51Z</time>
      </trkpt>
      <trkpt lat="42.57047" lon="1.94033">
        <ele>2611</ele>
        <time>2021-08-23T23:28:03Z</time>
      </trkpt>
      <trkpt lat="42.57051" lon="1.94054">
        <ele>2605</ele>
        <time>2021-08-23T23:28:24Z</time>
      </trkpt>
      <trkpt lat="42.57049" lon="1.94065">
        <ele>2602</ele>
        <time>2021-08-23T23:28:36Z</time>
      </trkpt>
      <trkpt lat="42.57052" lon="1.94079">
        <ele>2598</ele>
        <time>2021-08-23T23:28:50Z</time>
      </trkpt>
      <trkpt lat="42.57048" lon="1.94089">
        <ele>2596</ele>
        <time>2021-08-23T23:29:01Z</time>
      </trkpt>
      <trkpt lat="42.57051" lon="1.94096">
        <ele>2593</ele>
        <time>2021-08-23T23:29:09Z</time>
      </trkpt>
      <trkpt lat="42.57046" lon="1.9413">
        <ele>2583</ele>
        <time>2021-08-23T23:29:43Z</time>
      </trkpt>
      <trkpt lat="42.57051" lon="1.94137">
        <ele>2579</ele>
        <time>2021-08-23T23:29:53Z</time>
      </trkpt>
      <trkpt lat="42.57052" lon="1.94143">
        <ele>2577</ele>
        <time>2021-08-23T23:29:59Z</time>
      </trkpt>
      <trkpt lat="42.57042" lon="1.94166">
        <ele>2573</ele>
        <time>2021-08-23T23:30:25Z</time>
      </trkpt>
      <trkpt lat="42.57039" lon="1.94189">
        <ele>2562</ele>
        <time>2021-08-23T23:30:48Z</time>
      </trkpt>
      <trkpt lat="42.57035" lon="1.942">
        <ele>2558</ele>
        <time>2021-08-23T23:31:00Z</time>
      </trkpt>
      <trkpt lat="42.57035" lon="1.94237">
        <ele>2540</ele>
        <time>2021-08-23T23:31:36Z</time>
      </trkpt>
      <trkpt lat="42.57031" lon="1.94258">
        <ele>2532</ele>
        <time>2021-08-23T23:31:58Z</time>
      </trkpt>
      <trkpt lat="42.57019" lon="1.94285">
        <ele>2524</ele>
        <time>2021-08-23T23:32:29Z</time>
      </trkpt>
      <trkpt lat="42.57012" lon="1.94309">
        <ele>2515</ele>
        <time>2021-08-23T23:32:54Z</time>
      </trkpt>
      <trkpt lat="42.57003" lon="1.94357">
        <ele>2504</ele>
        <time>2021-08-23T23:33:43Z</time>
      </trkpt>
      <trkpt lat="42.5701" lon="1.94409">
        <ele>2493</ele>
        <time>2021-08-23T23:34:35Z</time>
      </trkpt>
      <trkpt lat="42.57023" lon="1.9445">
        <ele>2482</ele>
        <time>2021-08-23T23:35:19Z</time>
      </trkpt>
      <trkpt lat="42.57039" lon="1.94473">
        <ele>2472</ele>
        <time>2021-08-23T23:35:50Z</time>
      </trkpt>
      <trkpt lat="42.57046" lon="1.94493">
        <ele>2466</ele>
        <time>2021-08-23T23:36:11Z</time>
      </trkpt>
      <trkpt lat="42.5705" lon="1.94521">
        <ele>2461</ele>
        <time>2021-08-23T23:36:39Z</time>
      </trkpt>
      <trkpt lat="42.57056" lon="1.94532">
        <ele>2457</ele>
        <time>2021-08-23T23:36:53Z</time>
      </trkpt>
      <trkpt lat="42.57083" lon="1.94558">
        <ele>2440</ele>
        <time>2021-08-23T23:37:37Z</time>
      </trkpt>
      <trkpt lat="42.57089" lon="1.94577">
        <ele>2437</ele>
        <time>2021-08-23T23:37:57Z</time>
      </trkpt>
      <trkpt lat="42.57091" lon="1.94614">
        <ele>2434</ele>
        <time>2021-08-23T23:38:34Z</time>
      </trkpt>
      <trkpt lat="42.57098" lon="1.94644">
        <ele>2430</ele>
        <time>2021-08-23T23:39:05Z</time>
      </trkpt>
      <trkpt lat="42.57094" lon="1.94697">
        <ele>2429</ele>
        <time>2021-08-23T23:39:57Z</time>
      </trkpt>
      <trkpt lat="42.57097" lon="1.94713">
        <ele>2428</ele>
        <time>2021-08-23T23:40:13Z</time>
      </trkpt>
      <trkpt lat="42.57107" lon="1.94735">
        <ele>2426</ele>
        <time>2021-08-23T23:40:39Z</time>
      </trkpt>
      <trkpt lat="42.57122" lon="1.94757">
        <ele>2423</ele>
        <time>2021-08-23T23:41:08Z</time>
      </trkpt>
      <trkpt lat="42.57127" lon="1.9478">
        <ele>2420</ele>
        <time>2021-08-23T23:41:32Z</time>
      </trkpt>
      <trkpt lat="42.57124" lon="1.94833">
        <ele>2417</ele>
        <time>2021-08-23T23:42:24Z</time>
      </trkpt>
      <trkpt lat="42.57125" lon="1.94859">
        <ele>2414</ele>
        <time>2021-08-23T23:42:50Z</time>
      </trkpt>
      <trkpt lat="42.57128" lon="1.94872">
        <ele>2412</ele>
        <time>2021-08-23T23:43:03Z</time>
      </trkpt>
      <trkpt lat="42.57146" lon="1.94891">
        <ele>2405</ele>
        <time>2021-08-23T23:43:33Z</time>
      </trkpt>
      <trkpt lat="42.57159" lon="1.94899">
        <ele>2401</ele>
        <time>2021-08-23T23:43:53Z</time>
      </trkpt>
      <trkpt lat="42.57168" lon="1.94914">
        <ele>2397</ele>
        <time>2021-08-23T23:44:12Z</time>
      </trkpt>
      <trkpt lat="42.57165" lon="1.94924">
        <ele>2397</ele>
        <time>2021-08-23T23:44:22Z</time>
      </trkpt>
      <trkpt lat="42.57167" lon="1.94953">
        <ele>2393</ele>
        <time>2021-08-23T23:44:51Z</time>
      </trkpt>
      <trkpt lat="42.57175" lon="1.94968">
        <ele>2390</ele>
        <time>2021-08-23T23:45:09Z</time>
      </trkpt>
      <trkpt lat="42.57181" lon="1.95002">
        <ele>2385</ele>
        <time>2021-08-23T23:45:43Z</time>
      </trkpt>
      <trkpt lat="42.57167" lon="1.95045">
        <ele>2379</ele>
        <time>2021-08-23T23:46:30Z</time>
      </trkpt>
      <trkpt lat="42.5716" lon="1.95079">
        <ele>2373</ele>
        <time>2021-08-23T23:47:04Z</time>
      </trkpt>
      <trkpt lat="42.57156" lon="1.95087">
        <ele>2373</ele>
        <time>2021-08-23T23:47:14Z</time>
      </trkpt>
      <trkpt lat="42.57157" lon="1.95108">
        <ele>2370</ele>
        <time>2021-08-23T23:47:34Z</time>
      </trkpt>
      <trkpt lat="42.57153" lon="1.95155">
        <ele>2367</ele>
        <time>2021-08-23T23:48:21Z</time>
      </trkpt>
      <trkpt lat="42.57145" lon="1.9518">
        <ele>2367</ele>
        <time>2021-08-23T23:48:48Z</time>
      </trkpt>
      <trkpt lat="42.57153" lon="1.95216">
        <ele>2365</ele>
        <time>2021-08-23T23:49:25Z</time>
      </trkpt>
      <trkpt lat="42.57158" lon="1.95256">
        <ele>2363</ele>
        <time>2021-08-23T23:50:05Z</time>
      </trkpt>
      <trkpt lat="42.57165" lon="1.95266">
        <ele>2362</ele>
        <time>2021-08-23T23:50:18Z</time>
      </trkpt>
      <trkpt lat="42.57174" lon="1.95303">
        <ele>2361</ele>
        <time>2021-08-23T23:50:56Z</time>
      </trkpt>
      <trkpt lat="42.572" lon="1.95442">
        <ele>2356</ele>
        <time>2021-08-23T23:53:17Z</time>
      </trkpt>
      <trkpt lat="42.57209" lon="1.95451">
        <ele>2353</ele>
        <time>2021-08-23T23:53:32Z</time>
      </trkpt>
      <trkpt lat="42.57215" lon="1.95473">
        <ele>2351</ele>
        <time>2021-08-23T23:53:55Z</time>
      </trkpt>
      <trkpt lat="42.57224" lon="1.95493">
        <ele>2348</ele>
        <time>2021-08-23T23:54:18Z</time>
      </trkpt>
      <trkpt lat="42.57231" lon="1.95503">
        <ele>2346</ele>
        <time>2021-08-23T23:54:32Z</time>
      </trkpt>
      <trkpt lat="42.57239" lon="1.95509">
        <ele>2344</ele>
        <time>2021-08-23T23:54:44Z</time>
      </trkpt>
      <trkpt lat="42.57254" lon="1.95535">
        <ele>2343</ele>
        <time>2021-08-23T23:55:17Z</time>
      </trkpt>
      <trkpt lat="42.57269" lon="1.95552">
        <ele>2342</ele>
        <time>2021-08-23T23:55:43Z</time>
      </trkpt>
      <trkpt lat="42.57294" lon="1.95588">
        <ele>2342</ele>
        <time>2021-08-23T23:56:31Z</time>
      </trkpt>
      <trkpt lat="42.57309" lon="1.95599">
        <ele>2342</ele>
        <time>2021-08-23T23:56:54Z</time>
      </trkpt>
      <trkpt lat="42.57305" lon="1.95603">
        <ele>2343</ele>
        <time>2021-08-23T23:57:01Z</time>
      </trkpt>
      <trkpt lat="42.57293" lon="1.9563">
        <ele>2347</ele>
        <time>2021-08-23T23:57:32Z</time>
      </trkpt>
      <trkpt lat="42.57305" lon="1.95603">
        <ele>2343</ele>
        <time>2021-08-23T23:58:03Z</time>
      </trkpt>
      <trkpt lat="42.57309" lon="1.95599">
        <ele>2342</ele>
        <time>2021-08-23T23:58:09Z</time>
      </trkpt>
      <trkpt lat="42.57321" lon="1.95601">
        <ele>2341</ele>
        <time>2021-08-23T23:58:25Z</time>
      </trkpt>
      <trkpt lat="42.57335" lon="1.95609">
        <ele>2341</ele>
        <time>2021-08-23T23:58:46Z</time>
      </trkpt>
      <trkpt lat="42.57341" lon="1.95618">
        <ele>2342</ele>
        <time>2021-08-23T23:58:58Z</time>
      </trkpt>
      <trkpt lat="42.57365" lon="1.95624">
        <ele>2342</ele>
        <time>2021-08-23T23:59:30Z</time>
      </trkpt>
      <trkpt lat="42.57429" lon="1.95661">
        <ele>2341</ele>
        <time>2021-08-24T00:01:03Z</time>
      </trkpt>
      <trkpt lat="42.57456" lon="1.95685">
        <ele>2341</ele>
        <time>2021-08-24T00:01:46Z</time>
      </trkpt>
      <trkpt lat="42.57493" lon="1.95748">
        <ele>2339</ele>
        <time>2021-08-24T00:03:05Z</time>
      </trkpt>
      <trkpt lat="42.57517" lon="1.95831">
        <ele>2336</ele>
        <time>2021-08-24T00:04:33Z</time>
      </trkpt>
      <trkpt lat="42.57516" lon="1.95863">
        <ele>2336</ele>
        <time>2021-08-24T00:05:04Z</time>
      </trkpt>
      <trkpt lat="42.5753" lon="1.95901">
        <ele>2332</ele>
        <time>2021-08-24T00:05:46Z</time>
      </trkpt>
      <trkpt lat="42.57569" lon="1.96113">
        <ele>2321</ele>
        <time>2021-08-24T00:09:21Z</time>
      </trkpt>
      <trkpt lat="42.57594" lon="1.96183">
        <ele>2320</ele>
        <time>2021-08-24T00:10:37Z</time>
      </trkpt>
      <trkpt lat="42.57619" lon="1.96215">
        <ele>2319</ele>
        <time>2021-08-24T00:11:23Z</time>
      </trkpt>
      <trkpt lat="42.57638" lon="1.96256">
        <ele>2318</ele>
        <time>2021-08-24T00:12:11Z</time>
      </trkpt>
      <trkpt lat="42.57649" lon="1.96288">
        <ele>2317</ele>
        <time>2021-08-24T00:12:45Z</time>
      </trkpt>
      <trkpt lat="42.57657" lon="1.96351">
        <ele>2316</ele>
        <time>2021-08-24T00:13:48Z</time>
      </trkpt>
      <trkpt lat="42.57661" lon="1.96362">
        <ele>2315</ele>
        <time>2021-08-24T00:14:00Z</time>
      </trkpt>
      <trkpt lat="42.57655" lon="1.96387">
        <ele>2316</ele>
        <time>2021-08-24T00:14:26Z</time>
      </trkpt>
      <trkpt lat="42.57662" lon="1.96397">
        <ele>2315</ele>
        <time>2021-08-24T00:14:40Z</time>
      </trkpt>
      <trkpt lat="42.57668" lon="1.964">
        <ele>2315</ele>
        <time>2021-08-24T00:14:48Z</time>
      </trkpt>
      <trkpt lat="42.57674" lon="1.96397">
        <ele>2316</ele>
        <time>2021-08-24T00:14:57Z</time>
      </trkpt>
      <trkpt lat="42.57665" lon="1.96483">
        <ele>2315</ele>
        <time>2021-08-24T00:16:22Z</time>
      </trkpt>
      <trkpt lat="42.57646" lon="1.96529">
        <ele>2313</ele>
        <time>2021-08-24T00:17:14Z</time>
      </trkpt>
      <trkpt lat="42.57629" lon="1.96536">
        <ele>2313</ele>
        <time>2021-08-24T00:17:38Z</time>
      </trkpt>
      <trkpt lat="42.57621" lon="1.96536">
        <ele>2314</ele>
        <time>2021-08-24T00:17:48Z</time>
      </trkpt>
      <trkpt lat="42.57614" lon="1.96552">
        <ele>2313</ele>
        <time>2021-08-24T00:18:07Z</time>
      </trkpt>
      <trkpt lat="42.57603" lon="1.9661">
        <ele>2313</ele>
        <time>2021-08-24T00:19:05Z</time>
      </trkpt>
      <trkpt lat="42.57616" lon="1.96642">
        <ele>2311</ele>
        <time>2021-08-24T00:19:41Z</time>
      </trkpt>
      <trkpt lat="42.57618" lon="1.9668">
        <ele>2309</ele>
        <time>2021-08-24T00:20:19Z</time>
      </trkpt>
      <trkpt lat="42.57614" lon="1.96708">
        <ele>2309</ele>
        <time>2021-08-24T00:20:47Z</time>
      </trkpt>
      <trkpt lat="42.57599" lon="1.96736">
        <ele>2311</ele>
        <time>2021-08-24T00:21:21Z</time>
      </trkpt>
      <trkpt lat="42.57579" lon="1.96817">
        <ele>2308</ele>
        <time>2021-08-24T00:22:45Z</time>
      </trkpt>
      <trkpt lat="42.57576" lon="1.96842">
        <ele>2306</ele>
        <time>2021-08-24T00:23:10Z</time>
      </trkpt>
      <trkpt lat="42.57566" lon="1.96875">
        <ele>2300</ele>
        <time>2021-08-24T00:23:45Z</time>
      </trkpt>
      <trkpt lat="42.57552" lon="1.9691">
        <ele>2295</ele>
        <time>2021-08-24T00:24:24Z</time>
      </trkpt>
      <trkpt lat="42.57553" lon="1.96921">
        <ele>2294</ele>
        <time>2021-08-24T00:24:35Z</time>
      </trkpt>
      <trkpt lat="42.57559" lon="1.96939">
        <ele>2293</ele>
        <time>2021-08-24T00:24:54Z</time>
      </trkpt>
      <trkpt lat="42.57554" lon="1.96954">
        <ele>2291</ele>
        <time>2021-08-24T00:25:10Z</time>
      </trkpt>
      <trkpt lat="42.57548" lon="1.96952">
        <ele>2290</ele>
        <time>2021-08-24T00:25:19Z</time>
      </trkpt>
      <trkpt lat="42.57543" lon="1.96956">
        <ele>2289</ele>
        <time>2021-08-24T00:25:26Z</time>
      </trkpt>
      <trkpt lat="42.57534" lon="1.96978">
        <ele>2285</ele>
        <time>2021-08-24T00:25:51Z</time>
      </trkpt>
      <trkpt lat="42.57515" lon="1.97042">
        <ele>2276</ele>
        <time>2021-08-24T00:26:59Z</time>
      </trkpt>
      <trkpt lat="42.575" lon="1.97078">
        <ele>2270</ele>
        <time>2021-08-24T00:27:40Z</time>
      </trkpt>
      <trkpt lat="42.57491" lon="1.97131">
        <ele>2259</ele>
        <time>2021-08-24T00:28:33Z</time>
      </trkpt>
      <trkpt lat="42.57475" lon="1.97178">
        <ele>2249</ele>
        <time>2021-08-24T00:29:24Z</time>
      </trkpt>
      <trkpt lat="42.57455" lon="1.97198">
        <ele>2244</ele>
        <time>2021-08-24T00:29:57Z</time>
      </trkpt>
      <trkpt lat="42.57441" lon="1.97239">
        <ele>2241</ele>
        <time>2021-08-24T00:30:41Z</time>
      </trkpt>
      <trkpt lat="42.57437" lon="1.97243">
        <ele>2241</ele>
        <time>2021-08-24T00:30:48Z</time>
      </trkpt>
      <trkpt lat="42.57427" lon="1.97246">
        <ele>2239</ele>
        <time>2021-08-24T00:31:02Z</time>
      </trkpt>
      <trkpt lat="42.57412" lon="1.97258">
        <ele>2238</ele>
        <time>2021-08-24T00:31:25Z</time>
      </trkpt>
      <trkpt lat="42.57399" lon="1.97275">
        <ele>2240</ele>
        <time>2021-08-24T00:31:49Z</time>
      </trkpt>
      <trkpt lat="42.57386" lon="1.97313">
        <ele>2241</ele>
        <time>2021-08-24T00:32:30Z</time>
      </trkpt>
      <trkpt lat="42.57386" lon="1.9736">
        <ele>2242</ele>
        <time>2021-08-24T00:33:16Z</time>
      </trkpt>
      <trkpt lat="42.57359" lon="1.9745">
        <ele>2243</ele>
        <time>2021-08-24T00:34:52Z</time>
      </trkpt>
      <trkpt lat="42.57319" lon="1.97508">
        <ele>2243</ele>
        <time>2021-08-24T00:36:10Z</time>
      </trkpt>
      <trkpt lat="42.57267" lon="1.97628">
        <ele>2236</ele>
        <time>2021-08-24T00:38:27Z</time>
      </trkpt>
      <trkpt lat="42.57264" lon="1.97651">
        <ele>2235</ele>
        <time>2021-08-24T00:38:50Z</time>
      </trkpt>
      <trkpt lat="42.57251" lon="1.9767">
        <ele>2232</ele>
        <time>2021-08-24T00:39:15Z</time>
      </trkpt>
      <trkpt lat="42.57242" lon="1.97676">
        <ele>2232</ele>
        <time>2021-08-24T00:39:29Z</time>
      </trkpt>
      <trkpt lat="42.57231" lon="1.97694">
        <ele>2230</ele>
        <time>2021-08-24T00:39:52Z</time>
      </trkpt>
      <trkpt lat="42.57224" lon="1.97723">
        <ele>2228</ele>
        <time>2021-08-24T00:40:22Z</time>
      </trkpt>
      <trkpt lat="42.57168" lon="1.97792">
        <ele>2219</ele>
        <time>2021-08-24T00:42:03Z</time>
      </trkpt>
      <trkpt lat="42.57145" lon="1.97827">
        <ele>2213</ele>
        <time>2021-08-24T00:42:49Z</time>
      </trkpt>
      <trkpt lat="42.57132" lon="1.9786">
        <ele>2210</ele>
        <time>2021-08-24T00:43:25Z</time>
      </trkpt>
      <trkpt lat="42.57115" lon="1.97864">
        <ele>2206</ele>
        <time>2021-08-24T00:43:48Z</time>
      </trkpt>
      <trkpt lat="42.57105" lon="1.97879">
        <ele>2203</ele>
        <time>2021-08-24T00:44:08Z</time>
      </trkpt>
      <trkpt lat="42.57062" lon="1.97899">
        <ele>2192</ele>
        <time>2021-08-24T00:45:09Z</time>
      </trkpt>
      <trkpt lat="42.57045" lon="1.97913">
        <ele>2189</ele>
        <time>2021-08-24T00:45:36Z</time>
      </trkpt>
      <trkpt lat="42.57024" lon="1.97936">
        <ele>2186</ele>
        <time>2021-08-24T00:46:12Z</time>
      </trkpt>
      <trkpt lat="42.57024" lon="1.97944">
        <ele>2186</ele>
        <time>2021-08-24T00:46:19Z</time>
      </trkpt>
      <trkpt lat="42.57017" lon="1.97949">
        <ele>2185</ele>
        <time>2021-08-24T00:46:30Z</time>
      </trkpt>
      <trkpt lat="42.57009" lon="1.97951">
        <ele>2184</ele>
        <time>2021-08-24T00:46:41Z</time>
      </trkpt>
      <trkpt lat="42.56998" lon="1.97948">
        <ele>2183</ele>
        <time>2021-08-24T00:46:56Z</time>
      </trkpt>
      <trkpt lat="42.56989" lon="1.97937">
        <ele>2184</ele>
        <time>2021-08-24T00:47:12Z</time>
      </trkpt>
      <trkpt lat="42.5698" lon="1.97931">
        <ele>2184</ele>
        <time>2021-08-24T00:47:25Z</time>
      </trkpt>
      <trkpt lat="42.56971" lon="1.97939">
        <ele>2184</ele>
        <time>2021-08-24T00:47:40Z</time>
      </trkpt>
      <trkpt lat="42.56938" lon="1.97994">
        <ele>2184</ele>
        <time>2021-08-24T00:48:49Z</time>
      </trkpt>
      <trkpt lat="42.56904" lon="1.98035">
        <ele>2183</ele>
        <time>2021-08-24T00:49:50Z</time>
      </trkpt>
      <trkpt lat="42.56892" lon="1.98054">
        <ele>2182</ele>
        <time>2021-08-24T00:50:15Z</time>
      </trkpt>
      <trkpt lat="42.56854" lon="1.98077">
        <ele>2180</ele>
        <time>2021-08-24T00:51:10Z</time>
      </trkpt>
      <trkpt lat="42.56828" lon="1.98086">
        <ele>2179</ele>
        <time>2021-08-24T00:51:46Z</time>
      </trkpt>
      <trkpt lat="42.56811" lon="1.9812">
        <ele>2180</ele>
        <time>2021-08-24T00:52:26Z</time>
      </trkpt>
      <trkpt lat="42.56799" lon="1.9813">
        <ele>2180</ele>
        <time>2021-08-24T00:52:45Z</time>
      </trkpt>
      <trkpt lat="42.56789" lon="1.98134">
        <ele>2180</ele>
        <time>2021-08-24T00:52:59Z</time>
      </trkpt>
      <trkpt lat="42.5677" lon="1.98155">
        <ele>2181</ele>
        <time>2021-08-24T00:53:32Z</time>
      </trkpt>
      <trkpt lat="42.56766" lon="1.98171">
        <ele>2181</ele>
        <time>2021-08-24T00:53:48Z</time>
      </trkpt>
      <trkpt lat="42.56753" lon="1.98181">
        <ele>2181</ele>
        <time>2021-08-24T00:54:08Z</time>
      </trkpt>
      <trkpt lat="42.56751" lon="1.9821">
        <ele>2179</ele>
        <time>2021-08-24T00:54:37Z</time>
      </trkpt>
      <trkpt lat="42.56741" lon="1.98222">
        <ele>2177</ele>
        <time>2021-08-24T00:54:55Z</time>
      </trkpt>
      <trkpt lat="42.5669" lon="1.9824">
        <ele>2168</ele>
        <time>2021-08-24T00:56:05Z</time>
      </trkpt>
      <trkpt lat="42.56652" lon="1.98263">
        <ele>2161</ele>
        <time>2021-08-24T00:57:01Z</time>
      </trkpt>
      <trkpt lat="42.56597" lon="1.98269">
        <ele>2155</ele>
        <time>2021-08-24T00:58:14Z</time>
      </trkpt>
      <trkpt lat="42.5658" lon="1.98275">
        <ele>2154</ele>
        <time>2021-08-24T00:58:38Z</time>
      </trkpt>
      <trkpt lat="42.56523" lon="1.9835">
        <ele>2150</ele>
        <time>2021-08-24T01:00:24Z</time>
      </trkpt>
      <trkpt lat="42.5652" lon="1.98366">
        <ele>2150</ele>
        <time>2021-08-24T01:00:40Z</time>
      </trkpt>
      <trkpt lat="42.56498" lon="1.98393">
        <ele>2151</ele>
        <time>2021-08-24T01:01:19Z</time>
      </trkpt>
      <trkpt lat="42.5648" lon="1.98429">
        <ele>2150</ele>
        <time>2021-08-24T01:02:02Z</time>
      </trkpt>
      <trkpt lat="42.56478" lon="1.98454">
        <ele>2150</ele>
        <time>2021-08-24T01:02:27Z</time>
      </trkpt>
      <trkpt lat="42.56464" lon="1.98495">
        <ele>2148</ele>
        <time>2021-08-24T01:03:11Z</time>
      </trkpt>
      <trkpt lat="42.56451" lon="1.98504">
        <ele>2147</ele>
        <time>2021-08-24T01:03:31Z</time>
      </trkpt>
      <trkpt lat="42.56439" lon="1.98519">
        <ele>2146</ele>
        <time>2021-08-24T01:03:53Z</time>
      </trkpt>
      <trkpt lat="42.56435" lon="1.9852">
        <ele>2146</ele>
        <time>2021-08-24T01:03:58Z</time>
      </trkpt>
      <trkpt lat="42.56431" lon="1.98555">
        <ele>2142</ele>
        <time>2021-08-24T01:04:33Z</time>
      </trkpt>
      <trkpt lat="42.56424" lon="1.98568">
        <ele>2141</ele>
        <time>2021-08-24T01:04:49Z</time>
      </trkpt>
      <trkpt lat="42.56377" lon="1.98599">
        <ele>2139</ele>
        <time>2021-08-24T01:05:58Z</time>
      </trkpt>
      <trkpt lat="42.56338" lon="1.98637">
        <ele>2135</ele>
        <time>2021-08-24T01:07:02Z</time>
      </trkpt>
      <trkpt lat="42.56338" lon="1.98665">
        <ele>2130</ele>
        <time>2021-08-24T01:07:30Z</time>
      </trkpt>
      <trkpt lat="42.56329" lon="1.98671">
        <ele>2130</ele>
        <time>2021-08-24T01:07:43Z</time>
      </trkpt>
      <trkpt lat="42.5631" lon="1.98711">
        <ele>2125</ele>
        <time>2021-08-24T01:08:30Z</time>
      </trkpt>
      <trkpt lat="42.56275" lon="1.98728">
        <ele>2124</ele>
        <time>2021-08-24T01:09:20Z</time>
      </trkpt>
      <trkpt lat="42.56263" lon="1.9875">
        <ele>2120</ele>
        <time>2021-08-24T01:09:47Z</time>
      </trkpt>
      <trkpt lat="42.56262" lon="1.98766">
        <ele>2118</ele>
        <time>2021-08-24T01:10:02Z</time>
      </trkpt>
      <trkpt lat="42.56249" lon="1.98782">
        <ele>2116</ele>
        <time>2021-08-24T01:10:26Z</time>
      </trkpt>
      <trkpt lat="42.56236" lon="1.98788">
        <ele>2116</ele>
        <time>2021-08-24T01:10:44Z</time>
      </trkpt>
      <trkpt lat="42.56198" lon="1.9882">
        <ele>2112</ele>
        <time>2021-08-24T01:11:44Z</time>
      </trkpt>
      <trkpt lat="42.56168" lon="1.98853">
        <ele>2108</ele>
        <time>2021-08-24T01:12:35Z</time>
      </trkpt>
      <trkpt lat="42.56158" lon="1.98873">
        <ele>2107</ele>
        <time>2021-08-24T01:12:59Z</time>
      </trkpt>
      <trkpt lat="42.56156" lon="1.98893">
        <ele>2105</ele>
        <time>2021-08-24T01:13:19Z</time>
      </trkpt>
      <trkpt lat="42.56147" lon="1.98905">
        <ele>2104</ele>
        <time>2021-08-24T01:13:36Z</time>
      </trkpt>
      <trkpt lat="42.56132" lon="1.98912">
        <ele>2105</ele>
        <time>2021-08-24T01:13:57Z</time>
      </trkpt>
      <trkpt lat="42.56123" lon="1.98925">
        <ele>2104</ele>
        <time>2021-08-24T01:14:14Z</time>
      </trkpt>
      <trkpt lat="42.56117" lon="1.98943">
        <ele>2103</ele>
        <time>2021-08-24T01:14:34Z</time>
      </trkpt>
      <trkpt lat="42.56096" lon="1.98961">
        <ele>2101</ele>
        <time>2021-08-24T01:15:07Z</time>
      </trkpt>
      <trkpt lat="42.56086" lon="1.98978">
        <ele>2097</ele>
        <time>2021-08-24T01:15:28Z</time>
      </trkpt>
      <trkpt lat="42.56078" lon="1.98998">
        <ele>2094</ele>
        <time>2021-08-24T01:15:51Z</time>
      </trkpt>
      <trkpt lat="42.56075" lon="1.99018">
        <ele>2095</ele>
        <time>2021-08-24T01:16:11Z</time>
      </trkpt>
      <trkpt lat="42.56061" lon="1.99038">
        <ele>2096</ele>
        <time>2021-08-24T01:16:38Z</time>
      </trkpt>
      <trkpt lat="42.56039" lon="1.9906">
        <ele>2095</ele>
        <time>2021-08-24T01:17:14Z</time>
      </trkpt>
      <trkpt lat="42.56026" lon="1.99081">
        <ele>2090</ele>
        <time>2021-08-24T01:17:41Z</time>
      </trkpt>
      <trkpt lat="42.56008" lon="1.99157">
        <ele>2080</ele>
        <time>2021-08-24T01:19:00Z</time>
      </trkpt>
      <trkpt lat="42.56004" lon="1.99209">
        <ele>2077</ele>
        <time>2021-08-24T01:19:51Z</time>
      </trkpt>
      <trkpt lat="42.55992" lon="1.99233">
        <ele>2072</ele>
        <time>2021-08-24T01:20:20Z</time>
      </trkpt>
      <trkpt lat="42.55991" lon="1.99257">
        <ele>2071</ele>
        <time>2021-08-24T01:20:43Z</time>
      </trkpt>
      <trkpt lat="42.56" lon="1.99321">
        <ele>2073</ele>
        <time>2021-08-24T01:21:47Z</time>
      </trkpt>
      <trkpt lat="42.5602" lon="1.99406">
        <ele>2069</ele>
        <time>2021-08-24T01:23:15Z</time>
      </trkpt>
      <trkpt lat="42.56029" lon="1.9947">
        <ele>2062</ele>
        <time>2021-08-24T01:24:19Z</time>
      </trkpt>
      <trkpt lat="42.56007" lon="1.99548">
        <ele>2044</ele>
        <time>2021-08-24T01:25:41Z</time>
      </trkpt>
      <trkpt lat="42.55992" lon="1.99633">
        <ele>2037</ele>
        <time>2021-08-24T01:27:07Z</time>
      </trkpt>
      <trkpt lat="42.55999" lon="1.99633">
        <ele>2038</ele>
        <time>2021-08-24T01:27:16Z</time>
      </trkpt>
      <trkpt lat="42.5602" lon="1.99661">
        <ele>2040</ele>
        <time>2021-08-24T01:27:56Z</time>
      </trkpt>
      <trkpt lat="42.56028" lon="1.99659">
        <ele>2041</ele>
        <time>2021-08-24T01:28:07Z</time>
      </trkpt>
      <trkpt lat="42.56035" lon="1.99704">
        <ele>2035</ele>
        <time>2021-08-24T01:28:52Z</time>
      </trkpt>
    </trkseg>
  </trk>
</gpx>